Senarai Video

Tanpa sensor

Browse fresh records in this category and copy API endpoints directly.

Today
0
Kemaskini Hari Ini
Censored
313977
Censored Videos
Total
474136
Total Videos

Tanpa sensor Senarai Video

Latest category records ordered by update time.

IDNamaCODEKategoriDikemaskiniAPI
279381 102711-843 Si Cantik Kulit Putih Berseri Yui Hatano 102711-843 Tanpa sensor 2025-08-30 20:01:50 API
279379 102811-844 Aku Jadi Pelakon AV Sebab Nak Dikongkek 102811-844 Tanpa sensor 2025-08-30 20:01:30 API
279378 FC2-PPV-4329271 Lembu betina yang cantik dan sempurna, dua lelaki memenyetnya habis-habisan! Badan mantap, keluar banyak sangat air masa duduk atas kerusi sampai mesin rosak! FC2-PPV-4329271 Tanpa sensor 2025-08-30 20:01:20 API
279376 102911-845 Ternakan Penjara 9 ~ Daging Cantik yang Memalukan ~ Anna Takizawa 102911-845 Tanpa sensor 2025-08-30 20:01:00 API
279374 FC2-PPV-4329229 Edisi ke-6: Disebabkan faktor lain dan untuk menebus kesilapan di tempat kerja, inilah edisi ke-6 FC2-PPV-4329229 Tanpa sensor 2025-08-30 20:00:40 API
279373 103111-846 Chaku-Saddle Candy File.020 Mao Yonekura 103111-846 Tanpa sensor 2025-08-30 20:00:30 API
279371 110111-847 Tubuh Cantik yang Menakjubkan Kepulangan Si Jelita Narato Kou 110111-847 Tanpa sensor 2025-08-30 20:00:10 API
279370 110211-848 Tiba-tiba! Pasukan Bukkake Vol.9 Aoi Miyama 110211-848 Tanpa sensor 2025-08-30 20:00:00 API
279369 FC2-PPV-4329599 Standard Tertinggi FC2-PPV-4329599 Tanpa sensor 2025-08-30 19:59:50 API
279367 FC2-PPV-4323773 Hanya 500pt! Rakaman liat lubang faraj yang primitif FC2-PPV-4323773 Tanpa sensor 2025-08-30 19:59:30 API
279366 110311-849 An Yabuki Si Glamor yang Tamak dalam 3P yang Nakal 110311-849 Tanpa sensor 2025-08-30 19:59:20 API
279364 FC2-PPV-4331225 FC2-PPV-4331255 Kecantikan Mekanikal Subasuke: Utoragi 28 tahun yang ghairah & mesin kejam tanpa perasaan FC2-PPV-4331225 Tanpa sensor 2025-08-30 19:59:00 API
279363 110511-851 Tubuh Lucah Bahagian 1 110511-851 Tanpa sensor 2025-08-30 19:58:50 API
279361 110711-852 Kilang Pengubahsuaian Tubuh Wanita Kultus SEX - Bahagian 2: Cuci Otak Semula 110711-852 Tanpa sensor 2025-08-30 19:58:30 API
279359 FC2-PPV-4331233 Pemuda sangat muda yang membuat dia terkejut FC2-PPV-4331233 Tanpa sensor 2025-08-30 19:58:10 API
279357 110911-854 Bintang Porno AS Lawan Lelaki Jepun Bahagian 2 110911-854 Tanpa sensor 2025-08-30 19:57:50 API
279355 FC2-PPV-4331257 Cantik Bak Arca! Wanita Menawan dengan Rasa Luar Biasa di Atas Dek FC2-PPV-4331257 Tanpa sensor 2025-08-30 19:57:30 API
279354 111611-860 Sekuel Race Queen Tertua di Jepun Anna Hoshi 111611-860 Tanpa sensor 2025-08-30 19:57:20 API
279351 111711-861 Dewi Tempat Kerja Cape Lisa 111711-861 Tanpa sensor 2025-08-30 19:56:50 API
279350 FC2-PPV-4330270 Mutou Nagakko! Masa mula-mula saya main NTR rebut teman baik, saya rasa sangat ghairah dan akhirnya terjebak dalam dunia nafsu bersama Grand Duke FC2-PPV-4330270 Tanpa sensor 2025-08-30 19:56:40 API
279349 111811-862 Lori Fluffy Bahagian 2 Airi Miku 111811-862 Tanpa sensor 2025-08-30 19:56:30 API
279346 FC2-PPV-4324105 Gadis Bar Payudara F Cup Besar. Pancutan Sperma Dalam Faraj Asal FC2-PPV-4324105 Tanpa sensor 2025-08-30 19:56:00 API
279345 111911-863 Pemilik Onsen Seksi Minako Uchida 111911-863 Tanpa sensor 2025-08-30 19:55:50 API
279343 112111-864 Bombshell! Hukuman Dubur Cikgu Wanita Riko Tanaka 112111-864 Tanpa sensor 2025-08-30 19:55:30 API